Time;durP1;ratioP1;P1;durP2;ratioP2;P2;SDS_P1;SDS_P2;PMS_P1;PMS_P2;Temp;Humidity;BMP_temperature;BMP_pressure;BME280_temperature;BME280_humidity;BME280_pressure;Samples;Min_cycle;Max_cycle;Signal;HPM_P1;HPM_P2
2022/10/14 00:02:14;;;;;;;57.70;26.30;;;12.20;99.90;;;;;;5051742;28;20057;-74
2022/10/14 00:04:40;;;;;;;39.60;21.17;;;12.30;99.90;;;;;;5068469;28;20121;-73
2022/10/14 00:07:05;;;;;;;33.47;19.48;;;12.40;99.90;;;;;;5052944;28;20416;-73
2022/10/14 00:09:31;;;;;;;50.83;24.83;;;12.20;99.90;;;;;;5052354;28;20057;-73
2022/10/14 00:11:57;;;;;;;39.90;22.23;;;12.20;99.90;;;;;;5066994;28;20052;-73
2022/10/14 00:14:23;;;;;;;40.65;21.73;;;12.20;99.90;;;;;;5038213;28;20064;-73
2022/10/14 00:16:52;;;;;;;44.97;23.88;;;12.10;99.90;;;;;;5072612;28;20044;-73
2022/10/14 00:19:18;;;;;;;45.15;22.75;;;12.20;99.90;;;;;;5072414;28;20145;-73
2022/10/14 00:21:44;;;;;;;38.53;21.48;;;12.10;99.90;;;;;;5071717;28;20091;-73
2022/10/14 00:24:12;;;;;;;31.85;20.50;;;12.10;99.90;;;;;;5055069;28;20037;-73
2022/10/14 00:26:39;;;;;;;48.00;24.17;;;12.20;99.90;;;;;;5071994;28;20097;-73
2022/10/14 00:29:10;;;;;;;41.35;22.15;;;12.10;99.90;;;;;;5061942;28;20519;-73
2022/10/14 00:31:36;;;;;;;40.42;21.80;;;12.10;99.90;;;;;;5052378;28;20561;-74
2022/10/14 00:34:02;;;;;;;40.17;21.08;;;12.20;99.90;;;;;;5051359;28;20045;-73
2022/10/14 00:36:28;;;;;;;35.50;20.08;;;12.10;99.90;;;;;;5052425;28;20099;-73
2022/10/14 00:38:54;;;;;;;52.90;24.48;;;12.00;99.90;;;;;;5034781;28;20057;-73
2022/10/14 00:41:28;;;;;;;51.85;24.23;;;12.10;99.90;;;;;;5060159;28;20492;-73
2022/10/14 00:44:03;;;;;;;45.53;23.17;;;12.10;99.90;;;;;;5072159;28;20044;-73
2022/10/14 00:46:37;;;;;;;66.43;26.90;;;12.10;99.90;;;;;;5072394;28;20396;-73
2022/10/14 00:49:23;;;;;;;109.40;31.13;;;12.00;99.90;;;;;;5071180;28;20075;-73
2022/10/14 00:51:55;;;;;;;84.03;28.88;;;12.10;99.90;;;;;;5072183;28;20048;-74
2022/10/14 00:54:28;;;;;;;131.70;30.33;;;12.00;99.90;;;;;;5071483;28;20079;-73
2022/10/14 00:56:54;;;;;;;;;;;12.20;99.90;;;;;;5071750;28;20117;-73
2022/10/14 00:59:20;;;;;;;83.10;26.90;;;12.00;99.90;;;;;;5071069;28;19924;-74
2022/10/14 01:01:46;;;;;;;89.93;26.48;;;12.20;99.90;;;;;;5054866;28;20080;-74
2022/10/14 01:04:11;;;;;;;91.82;23.85;;;12.00;99.90;;;;;;5072218;28;20508;-73
2022/10/14 01:06:53;;;;;;;55.42;21.92;;;12.00;99.90;;;;;;5070844;28;20052;-73
2022/10/14 01:09:44;;;;;;;128.98;30.58;;;12.00;99.90;;;;;;5070396;28;20053;-73
2022/10/14 01:12:31;;;;;;;143.02;31.73;;;11.90;99.90;;;;;;5071023;28;20084;-73
2022/10/14 01:15:05;;;;;;;163.23;34.33;;;12.00;99.90;;;;;;5070994;28;20052;-73
2022/10/14 01:17:38;;;;;;;139.80;28.60;;;12.00;99.90;;;;;;5071132;28;20506;-73
2022/10/14 01:20:40;;;;;;;53.67;20.50;;;11.80;99.90;;;;;;5071829;28;20135;-73
2022/10/14 01:23:21;;;;;;;130.15;28.67;;;12.00;99.90;;;;;;5071080;28;20192;-73
2022/10/14 01:26:25;;;;;;;78.13;22.48;;;11.90;99.90;;;;;;5072416;28;20102;-73
2022/10/14 01:29:03;;;;;;;113.65;24.20;;;11.90;99.90;;;;;;5069724;28;20052;-73
2022/10/14 01:31:34;;;;;;;65.20;20.25;;;11.90;99.90;;;;;;5071770;28;20048;-73
2022/10/14 01:34:03;;;;;;;147.02;30.73;;;11.90;99.90;;;;;;5070618;28;20143;-73
2022/10/14 01:36:35;;;;;;;245.27;33.30;;;12.00;99.90;;;;;;5072258;28;20576;-73
2022/10/14 01:39:17;;;;;;;129.52;26.38;;;11.90;99.90;;;;;;5074564;28;20048;-73
2022/10/14 01:41:51;;;;;;;131.18;24.77;;;11.80;99.90;;;;;;5074770;28;20122;-73
2022/10/14 01:44:20;;;;;;;101.22;23.73;;;11.70;99.90;;;;;;5075108;28;20114;-73
2022/10/14 01:46:51;;;;;;;54.33;17.98;;;11.90;99.90;;;;;;5074264;28;20052;-73
2022/10/14 01:49:36;;;;;;;124.05;22.30;;;11.90;99.90;;;;;;5075283;28;20048;-73
2022/10/14 01:52:10;;;;;;;90.10;21.33;;;11.90;99.90;;;;;;5075205;28;20074;-73
2022/10/14 01:54:40;;;;;;;122.82;24.02;;;11.70;99.90;;;;;;5075032;28;20045;-74
2022/10/14 01:57:12;;;;;;;194.82;27.75;;;11.90;99.90;;;;;;5075287;28;20109;-74
2022/10/14 01:59:39;;;;;;;128.90;23.30;;;12.00;99.90;;;;;;5075183;28;20059;-74
2022/10/14 02:02:04;;;;;;;86.60;21.15;;;11.60;99.90;;;;;;5073715;28;20049;-72
2022/10/14 02:04:30;;;;;;;256.13;28.63;;;11.90;99.90;;;;;;5073905;28;20040;-74
2022/10/14 02:07:08;;;;;;;241.40;23.45;;;11.70;99.90;;;;;;5074902;28;20049;-74
2022/10/14 02:09:59;;;;;;;325.00;29.00;;;11.60;99.90;;;;;;5074468;28;20067;-74
2022/10/14 02:13:01;;;;;;;117.38;15.75;;;11.50;99.90;;;;;;5072906;28;20115;-73
2022/10/14 02:15:38;;;;;;;212.10;25.10;;;11.40;99.90;;;;;;5074750;28;20044;-74
2022/10/14 02:18:09;;;;;;;166.85;19.27;;;11.40;99.90;;;;;;5074171;28;20504;-73
2022/10/14 02:20:41;;;;;;;174.15;23.48;;;11.40;99.90;;;;;;5074746;28;20484;-73
2022/10/14 02:23:18;;;;;;;135.10;16.48;;;11.40;99.90;;;;;;5074718;28;20373;-74
2022/10/14 02:25:46;;;;;;;182.40;20.33;;;11.40;99.90;;;;;;5073380;28;20098;-73
2022/10/14 02:28:17;;;;;;;231.02;27.27;;;11.30;99.90;;;;;;5074253;28;20106;-73
2022/10/14 02:30:48;;;;;;;123.20;15.98;;;11.50;99.90;;;;;;5074700;28;20052;-73
2022/10/14 02:33:17;;;;;;;47.95;11.75;;;11.60;99.90;;;;;;5074391;28;20142;-73
2022/10/14 02:35:44;;;;;;;126.32;17.08;;;11.40;99.90;;;;;;5073231;28;20063;-73
2022/10/14 02:38:10;;;;;;;122.57;16.75;;;11.30;99.90;;;;;;5056645;28;20059;-73
2022/10/14 02:40:41;;;;;;;158.35;22.55;;;11.30;99.90;;;;;;5072552;28;20052;-73
2022/10/14 02:43:09;;;;;;;52.00;11.98;;;11.30;99.90;;;;;;5073828;28;20041;-73
2022/10/14 02:45:36;;;;;;;93.00;15.18;;;11.30;99.90;;;;;;5074226;28;20040;-73
2022/10/14 02:48:02;;;;;;;115.82;15.05;;;11.40;99.90;;;;;;5074285;28;20044;-73
2022/10/14 02:50:28;;;;;;;149.68;19.20;;;11.20;99.90;;;;;;5072803;28;20400;-73
2022/10/14 02:52:53;;;;;;;261.35;23.63;;;11.30;99.90;;;;;;5074056;28;20373;-73
2022/10/14 02:55:19;;;;;;;38.92;9.73;;;11.50;99.90;;;;;;5072735;28;20143;-73
2022/10/14 02:57:45;;;;;;;31.58;8.43;;;11.30;99.90;;;;;;5072850;28;20484;-73
2022/10/14 03:00:13;;;;;;;72.30;12.85;;;11.10;99.90;;;;;;5073677;28;20049;-73
2022/10/14 03:02:38;;;;;;;119.78;18.52;;;11.20;99.90;;;;;;5072826;28;20050;-73
2022/10/14 03:05:04;;;;;;;75.80;14.48;;;11.50;99.90;;;;;;5072534;28;20048;-73
2022/10/14 03:07:30;;;;;;;67.40;12.05;;;11.20;99.90;;;;;;5072886;28;20044;-73
2022/10/14 03:09:55;;;;;;;47.63;12.55;;;11.20;99.90;;;;;;5073310;28;20493;-73
2022/10/14 03:12:21;;;;;;;45.35;10.70;;;11.10;99.90;;;;;;5073020;28;20049;-73
2022/10/14 03:14:47;;;;;;;103.72;15.45;;;11.10;99.90;;;;;;5072539;28;20048;-73
2022/10/14 03:17:12;;;;;;;87.45;16.67;;;11.10;99.90;;;;;;5073456;28;20049;-74
2022/10/14 03:19:38;;;;;;;53.50;13.25;;;11.10;99.90;;;;;;5072596;28;20084;-73
2022/10/14 03:22:04;;;;;;;57.20;13.60;;;11.20;99.90;;;;;;5073537;28;20080;-73
2022/10/14 03:24:30;;;;;;;83.90;16.73;;;11.20;99.90;;;;;;5055604;28;20048;-74
2022/10/14 03:26:55;;;;;;;57.13;12.82;;;11.20;99.90;;;;;;5073541;28;20041;-74
2022/10/14 03:29:21;;;;;;;83.78;14.50;;;11.30;99.90;;;;;;5073457;28;20048;-74
2022/10/14 03:31:46;;;;;;;77.47;14.93;;;11.10;99.90;;;;;;5073784;28;20076;-74
2022/10/14 03:34:12;;;;;;;68.47;14.13;;;11.40;99.90;;;;;;5073303;28;20045;-73
2022/10/14 03:36:38;;;;;;;92.15;16.73;;;11.10;99.90;;;;;;5071962;28;20052;-73
2022/10/14 03:39:03;;;;;;;63.42;13.60;;;11.30;99.90;;;;;;5072836;28;20044;-74
2022/10/14 03:41:29;;;;;;;56.33;11.52;;;11.20;99.90;;;;;;5054264;28;20814;-73
2022/10/14 03:43:55;;;;;;;121.80;18.70;;;11.20;99.90;;;;;;5038881;28;20047;-74
2022/10/14 03:46:21;;;;;;;75.95;13.23;;;11.20;99.90;;;;;;5071889;28;20495;-74
2022/10/14 03:48:46;;;;;;;119.15;16.70;;;11.10;99.90;;;;;;5073110;28;20044;-74
2022/10/14 03:51:12;;;;;;;76.78;13.00;;;11.30;99.90;;;;;;5072877;28;20051;-74
2022/10/14 03:53:38;;;;;;;61.28;9.75;;;11.50;99.90;;;;;;5072609;28;20044;-74
2022/10/14 03:56:04;;;;;;;84.70;10.63;;;11.40;99.90;;;;;;5071808;28;20055;-74
2022/10/14 03:58:30;;;;;;;59.63;9.13;;;11.00;99.90;;;;;;5073000;28;20110;-74
2022/10/14 04:00:55;;;;;;;56.17;9.30;;;11.00;99.90;;;;;;5054777;28;20048;-74
2022/10/14 04:03:21;;;;;;;65.57;10.20;;;11.10;99.90;;;;;;5071618;28;20052;-74
2022/10/14 04:05:47;;;;;;;44.85;8.20;;;11.00;99.90;;;;;;5072789;28;20047;-74
2022/10/14 04:08:12;;;;;;;39.10;8.13;;;11.00;99.90;;;;;;5071477;28;20549;-74
2022/10/14 04:10:38;;;;;;;41.10;8.90;;;11.00;99.90;;;;;;5070969;28;20115;-74
2022/10/14 04:13:04;;;;;;;50.92;10.02;;;11.00;99.90;;;;;;5071932;28;20040;-74
2022/10/14 04:15:29;;;;;;;31.42;6.85;;;11.00;99.90;;;;;;5055196;28;20102;-75
2022/10/14 04:17:55;;;;;;;25.25;7.22;;;10.90;99.90;;;;;;5072566;28;20381;-74
2022/10/14 04:20:21;;;;;;;73.45;10.90;;;11.10;99.90;;;;;;5071559;28;20480;-74
2022/10/14 04:22:47;;;;;;;44.03;10.63;;;11.10;99.90;;;;;;5071225;28;20041;-74
2022/10/14 04:25:13;;;;;;;21.10;7.10;;;11.10;99.90;;;;;;5071700;28;20052;-74
2022/10/14 04:27:38;;;;;;;35.08;7.45;;;10.90;99.90;;;;;;5071430;28;20087;-74
2022/10/14 04:30:05;;;;;;;24.33;7.90;;;11.10;99.90;;;;;;5071462;28;20053;-74
2022/10/14 04:32:31;;;;;;;40.20;9.38;;;11.10;99.90;;;;;;5072382;28;20059;-74
2022/10/14 04:34:56;;;;;;;25.85;6.50;;;10.90;99.90;;;;;;5072543;28;20056;-74
2022/10/14 04:37:22;;;;;;;34.17;8.60;;;11.00;99.90;;;;;;5071218;28;20512;-74
2022/10/14 04:39:48;;;;;;;65.53;10.25;;;10.90;99.90;;;;;;5072197;28;20048;-74
2022/10/14 04:42:13;;;;;;;64.90;11.38;;;11.00;99.90;;;;;;5070359;28;20523;-73
2022/10/14 04:44:39;;;;;;;36.78;8.38;;;10.90;99.90;;;;;;5072344;28;20048;-73
2022/10/14 04:47:05;;;;;;;22.73;7.50;;;11.10;99.90;;;;;;5071164;28;20054;-74
2022/10/14 04:49:31;;;;;;;29.63;7.43;;;10.90;99.90;;;;;;5071325;28;20044;-74
2022/10/14 04:51:56;;;;;;;53.17;9.00;;;11.00;99.90;;;;;;5072275;28;20044;-73
2022/10/14 04:54:22;;;;;;;49.55;8.65;;;11.30;99.90;;;;;;5072629;28;20100;-74
2022/10/14 04:56:48;;;;;;;32.28;8.07;;;11.00;99.90;;;;;;5071137;28;20047;-74
2022/10/14 04:59:13;;;;;;;20.25;6.60;;;11.00;99.90;;;;;;5072348;28;20044;-74
2022/10/14 05:01:39;;;;;;;28.10;7.93;;;11.00;99.90;;;;;;5071280;28;20128;-74
2022/10/14 05:04:05;;;;;;;26.08;6.75;;;11.10;99.90;;;;;;5071218;28;20480;-74
2022/10/14 05:06:31;;;;;;;19.23;6.75;;;11.60;99.90;;;;;;5072311;28;20504;-74
2022/10/14 05:08:56;;;;;;;15.73;7.25;;;11.10;99.90;;;;;;5072131;28;20068;-73
2022/10/14 05:11:22;;;;;;;38.03;9.02;;;11.00;99.90;;;;;;5072008;28;20056;-73
2022/10/14 05:13:48;;;;;;;19.27;7.97;;;11.00;99.90;;;;;;5075013;28;20103;-73
2022/10/14 05:16:14;;;;;;;21.40;8.43;;;11.10;99.90;;;;;;5074891;28;20481;-74
2022/10/14 05:18:39;;;;;;;27.00;8.73;;;11.30;99.90;;;;;;5076172;28;20146;-74
2022/10/14 05:21:05;;;;;;;18.83;7.72;;;11.00;99.90;;;;;;5075037;28;20439;-74
2022/10/14 05:23:31;;;;;;;17.92;6.63;;;11.10;99.90;;;;;;5075795;28;20036;-73
2022/10/14 05:25:56;;;;;;;22.58;8.10;;;11.10;99.90;;;;;;5075941;28;20045;-74
2022/10/14 05:28:22;;;;;;;29.70;9.55;;;11.00;99.90;;;;;;5074192;28;20523;-74
2022/10/14 05:30:48;;;;;;;15.43;7.70;;;11.10;99.90;;;;;;5058184;28;20127;-74
2022/10/14 05:33:14;;;;;;;25.63;8.75;;;11.30;99.90;;;;;;5074552;28;20476;-73
2022/10/14 05:35:41;;;;;;;18.02;7.72;;;11.00;99.90;;;;;;5041507;28;20069;-74
2022/10/14 05:38:07;;;;;;;34.55;10.32;;;11.20;99.90;;;;;;5074792;28;20064;-74
2022/10/14 05:40:32;;;;;;;27.90;11.13;;;11.30;99.90;;;;;;5075176;28;20396;-73
2022/10/14 05:42:58;;;;;;;16.02;8.85;;;11.00;99.90;;;;;;5074579;28;20088;-74
2022/10/14 05:45:25;;;;;;;22.75;8.88;;;11.00;99.90;;;;;;5075548;28;20048;-74
2022/10/14 05:47:51;;;;;;;17.63;8.25;;;11.00;99.90;;;;;;5074125;28;20059;-73
2022/10/14 05:50:17;;;;;;;30.15;10.15;;;11.20;99.90;;;;;;5074029;28;20040;-74
2022/10/14 05:52:42;;;;;;;20.42;9.45;;;11.10;99.90;;;;;;5074321;28;20041;-74
2022/10/14 05:55:08;;;;;;;23.48;8.80;;;11.70;99.90;;;;;;5074988;28;20076;-74
2022/10/14 05:57:34;;;;;;;23.45;9.45;;;11.10;99.90;;;;;;5075102;28;20098;-74
2022/10/14 06:00:00;;;;;;;29.17;11.43;;;11.10;99.90;;;;;;5075288;28;20044;-74
2022/10/14 06:02:26;;;;;;;28.85;10.60;;;11.10;99.90;;;;;;5075068;28;20041;-73
2022/10/14 06:04:52;;;;;;;27.25;9.13;;;11.40;99.90;;;;;;5074935;28;20075;-74
2022/10/14 06:07:18;;;;;;;20.38;8.70;;;11.10;99.90;;;;;;5073906;28;20113;-74
2022/10/14 06:09:44;;;;;;;23.27;10.18;;;11.20;99.90;;;;;;5073062;28;20117;-74
2022/10/14 06:12:10;;;;;;;19.85;8.50;;;11.10;99.90;;;;;;5073990;28;20048;-73
2022/10/14 06:14:37;;;;;;;33.58;11.27;;;11.30;99.90;;;;;;5074014;28;20468;-73
2022/10/14 06:17:04;;;;;;;19.48;9.30;;;11.20;99.90;;;;;;5074668;28;20053;-74
2022/10/14 06:19:30;;;;;;;22.40;9.65;;;11.20;99.90;;;;;;5056999;28;20451;-74
2022/10/14 06:21:56;;;;;;;22.30;10.10;;;11.10;99.90;;;;;;5073537;28;20122;-74
2022/10/14 06:24:22;;;;;;;31.30;12.20;;;11.20;99.90;;;;;;5073991;28;20033;-74
2022/10/14 06:26:48;;;;;;;26.10;12.13;;;11.40;99.90;;;;;;5057231;28;20044;-74
2022/10/14 06:29:14;;;;;;;35.15;13.55;;;11.40;99.90;;;;;;5073450;28;20047;-74
2022/10/14 06:31:40;;;;;;;30.50;13.10;;;11.20;99.90;;;;;;5074326;28;20048;-74
2022/10/14 06:34:06;;;;;;;39.63;14.20;;;11.20;99.90;;;;;;5074151;28;20086;-74
2022/10/14 06:36:32;;;;;;;34.53;14.30;;;11.30;99.90;;;;;;5074723;28;20499;-74
2022/10/14 06:38:58;;;;;;;33.65;13.10;;;11.20;99.90;;;;;;5053832;28;20119;-74
2022/10/14 06:41:24;;;;;;;36.90;14.23;;;11.60;99.90;;;;;;5054132;28;20553;-74
2022/10/14 06:43:49;;;;;;;38.58;14.90;;;11.30;99.90;;;;;;5053382;28;20436;-74
2022/10/14 06:46:15;;;;;;;34.60;13.68;;;11.50;99.90;;;;;;5054143;28;20045;-74
2022/10/14 06:48:41;;;;;;;37.30;14.10;;;11.50;99.90;;;;;;5053925;28;20060;-74
2022/10/14 06:51:07;;;;;;;37.75;17.05;;;11.50;99.90;;;;;;5054129;28;20157;-74
2022/10/14 06:53:33;;;;;;;38.00;15.73;;;11.40;99.90;;;;;;5053345;28;20056;-74
2022/10/14 06:56:05;;;;;;;31.90;14.07;;;11.50;99.90;;;;;;5069818;28;20477;-74
2022/10/14 06:58:31;;;;;;;31.35;14.65;;;11.70;99.90;;;;;;5052803;28;20052;-74
2022/10/14 07:01:02;;;;;;;28.55;13.32;;;11.50;99.90;;;;;;5053924;28;20489;-74
2022/10/14 07:03:27;;;;;;;31.45;14.95;;;11.40;99.90;;;;;;5069290;28;20060;-74
2022/10/14 07:05:53;;;;;;;29.48;13.95;;;11.40;99.90;;;;;;5036318;28;20059;-74
2022/10/14 07:08:19;;;;;;;32.78;13.88;;;11.50;99.90;;;;;;5052756;28;20045;-74
2022/10/14 07:10:46;;;;;;;31.73;14.07;;;11.50;99.90;;;;;;5053501;28;20102;-74
2022/10/14 07:13:12;;;;;;;30.08;13.98;;;11.50;99.90;;;;;;5052582;28;20120;-74
2022/10/14 07:15:38;;;;;;;33.70;14.75;;;11.40;99.90;;;;;;5052597;28;20136;-74
2022/10/14 07:18:05;;;;;;;30.63;15.07;;;11.60;99.90;;;;;;5053362;28;20417;-74
2022/10/14 07:20:33;;;;;;;33.08;15.75;;;11.60;99.90;;;;;;5069481;28;20052;-74
2022/10/14 07:22:59;;;;;;;35.63;16.02;;;11.60;99.90;;;;;;5053761;28;20041;-73
2022/10/14 07:25:24;;;;;;;34.42;15.38;;;11.90;99.90;;;;;;5053521;28;20055;-73
2022/10/14 07:27:52;;;;;;;37.25;16.88;;;11.60;99.90;;;;;;5053368;28;20451;-74
2022/10/14 07:30:18;;;;;;;37.90;16.77;;;11.80;99.90;;;;;;5052252;28;20099;-74
2022/10/14 07:32:44;;;;;;;32.75;16.30;;;11.60;99.90;;;;;;5053057;28;20049;-74
2022/10/14 07:35:09;;;;;;;28.58;14.48;;;11.70;99.90;;;;;;5051642;28;20539;-73
2022/10/14 07:37:35;;;;;;;30.55;15.68;;;11.60;99.90;;;;;;5069158;28;20037;-73
2022/10/14 07:40:01;;;;;;;33.10;16.27;;;11.90;99.90;;;;;;5050615;28;20493;-73
2022/10/14 07:42:27;;;;;;;31.80;16.48;;;11.70;99.90;;;;;;5052913;28;20045;-76
2022/10/14 07:44:53;;;;;;;36.10;15.75;;;11.50;99.90;;;;;;5050958;28;20056;-73
2022/10/14 07:47:19;;;;;;;31.73;15.07;;;11.60;99.90;;;;;;5052791;28;20052;-73
2022/10/14 07:49:45;;;;;;;33.63;16.38;;;11.70;99.90;;;;;;5053526;28;20052;-73
2022/10/14 07:52:10;;;;;;;32.30;16.23;;;11.90;99.90;;;;;;5053256;28;20179;-73
2022/10/14 07:54:36;;;;;;;31.10;16.25;;;11.60;99.90;;;;;;5053147;28;20060;-73
2022/10/14 07:57:02;;;;;;;28.85;14.88;;;11.60;99.90;;;;;;5052983;28;20044;-73
2022/10/14 07:59:28;;;;;;;26.60;14.73;;;11.70;99.90;;;;;;5052010;28;20083;-72
2022/10/14 08:01:55;;;;;;;29.65;14.57;;;11.60;99.90;;;;;;5052837;28;20088;-71
2022/10/14 08:04:22;;;;;;;28.67;15.30;;;11.70;99.90;;;;;;5052357;28;20060;-71
2022/10/14 08:06:48;;;;;;;30.75;16.30;;;11.80;99.90;;;;;;5052988;28;20048;-71
2022/10/14 08:09:14;;;;;;;32.70;16.13;;;11.80;99.90;;;;;;5051546;28;20107;-72
2022/10/14 08:11:41;;;;;;;31.75;17.30;;;11.80;99.90;;;;;;5052428;28;20052;-72
2022/10/14 08:14:07;;;;;;;32.22;16.50;;;11.70;99.90;;;;;;5052062;28;20132;-73
2022/10/14 08:16:34;;;;;;;30.42;15.63;;;12.00;99.90;;;;;;5051757;28;20136;-73
2022/10/14 08:19:03;;;;;;;31.60;15.98;;;11.90;99.90;;;;;;5052934;28;20063;-72
2022/10/14 08:21:29;;;;;;;29.02;15.35;;;11.90;99.90;;;;;;5052704;28;20041;-73
2022/10/14 08:23:55;;;;;;;32.30;15.55;;;11.80;99.90;;;;;;5068368;28;20484;-73
2022/10/14 08:26:27;;;;;;;26.52;13.98;;;11.90;99.90;;;;;;5052609;28;20095;-73
2022/10/14 08:28:52;;;;;;;28.77;14.43;;;11.80;99.90;;;;;;5052563;28;20048;-73
2022/10/14 08:31:19;;;;;;;25.52;14.50;;;11.90;99.90;;;;;;5052930;28;20500;-75
2022/10/14 08:33:45;;;;;;;29.40;13.88;;;11.70;99.90;;;;;;5061164;28;20096;-73
2022/10/14 08:36:11;;;;;;;27.58;13.25;;;12.00;99.90;;;;;;5061253;28;20048;-73
2022/10/14 08:38:37;;;;;;;28.95;14.32;;;11.90;99.90;;;;;;5057732;28;20107;-73
2022/10/14 08:41:06;;;;;;;24.83;13.15;;;11.90;99.90;;;;;;5055325;28;20045;-74
2022/10/14 08:43:42;;;;;;;27.00;14.75;;;12.00;99.90;;;;;;5051889;28;20128;-73
2022/10/14 08:46:24;;;;;;;24.95;13.55;;;12.00;99.90;;;;;;5058368;28;20080;-73
2022/10/14 08:48:58;;;;;;;25.47;13.40;;;12.00;99.90;;;;;;5062242;28;20036;-73
2022/10/14 08:51:29;;;;;;;25.27;13.70;;;12.10;99.90;;;;;;5067089;28;20124;-73
2022/10/14 08:54:04;;;;;;;24.80;12.77;;;12.20;99.90;;;;;;5064210;28;20039;-72
2022/10/14 08:56:32;;;;;;;26.95;14.00;;;12.30;99.90;;;;;;5063739;28;20041;-73
2022/10/14 08:59:04;;;;;;;28.25;12.85;;;12.20;99.90;;;;;;5063578;28;20079;-71
2022/10/14 09:01:49;;;;;;;26.25;12.80;;;12.20;99.90;;;;;;5063031;28;20128;-73
2022/10/14 09:04:15;;;;;;;24.83;12.88;;;12.20;99.90;;;;;;5064459;28;20555;-73
2022/10/14 09:06:45;;;;;;;21.23;11.90;;;12.60;99.90;;;;;;5064043;28;20101;-72
2022/10/14 09:09:36;;;;;;;22.92;12.20;;;12.30;99.90;;;;;;5063714;28;20053;-72
2022/10/14 09:12:10;;;;;;;25.58;12.90;;;12.30;99.90;;;;;;5064874;28;20048;-72
2022/10/14 09:14:41;;;;;;;25.02;13.35;;;12.30;99.90;;;;;;5062061;28;20036;-73
2022/10/14 09:17:22;;;;;;;21.45;11.57;;;12.40;99.90;;;;;;5060497;28;20047;-73
2022/10/14 09:19:58;;;;;;;26.98;12.77;;;12.40;99.90;;;;;;5057046;28;20052;-72
2022/10/14 09:22:26;;;;;;;21.45;11.50;;;12.40;99.90;;;;;;5064908;28;20094;-73
2022/10/14 09:24:52;;;;;;;25.77;12.00;;;12.40;99.90;;;;;;5063063;28;20050;-73
2022/10/14 09:27:20;;;;;;;25.85;13.23;;;12.50;99.90;;;;;;5064299;28;20388;-74
2022/10/14 09:30:00;;;;;;;23.75;11.80;;;12.40;99.90;;;;;;5061587;28;20049;-73
2022/10/14 09:32:38;;;;;;;26.33;12.25;;;12.60;99.90;;;;;;5063399;28;20102;-73
2022/10/14 09:35:24;;;;;;;21.45;12.02;;;12.60;99.90;;;;;;5066078;28;20485;-72
2022/10/14 09:37:50;;;;;;;22.85;12.40;;;12.60;99.90;;;;;;5062313;28;20400;-72
2022/10/14 09:40:32;;;;;;;22.48;13.00;;;12.60;99.90;;;;;;5064447;28;20040;-72
2022/10/14 09:43:07;;;;;;;24.90;12.88;;;12.50;99.90;;;;;;5046768;28;20464;-72
2022/10/14 09:45:51;;;;;;;24.67;12.45;;;12.60;99.90;;;;;;5061490;28;20040;-72
2022/10/14 09:48:47;;;;;;;26.73;13.68;;;12.60;99.90;;;;;;5046489;28;20049;-72
2022/10/14 09:51:29;;;;;;;24.63;13.20;;;12.90;99.90;;;;;;5060545;28;20053;-72
2022/10/14 09:53:57;;;;;;;26.73;14.55;;;12.60;99.90;;;;;;5063330;28;20048;-72
2022/10/14 09:56:33;;;;;;;26.90;14.55;;;12.90;99.90;;;;;;5063270;28;20051;-73
2022/10/14 09:59:00;;;;;;;35.70;20.20;;;12.70;99.90;;;;;;5064404;28;20040;-72
2022/10/14 10:01:31;;;;;;;38.25;16.35;;;13.10;99.90;;;;;;5060142;28;20051;-73
2022/10/14 10:04:23;;;;;;;25.02;13.63;;;12.80;99.90;;;;;;5066146;28;20099;-73
2022/10/14 10:06:53;;;;;;;25.27;14.80;;;12.90;99.90;;;;;;5061724;28;20072;-74
2022/10/14 10:09:19;;;;;;;24.85;14.73;;;12.80;99.90;;;;;;5063769;28;20053;-73
2022/10/14 10:11:45;;;;;;;27.45;13.80;;;13.00;99.90;;;;;;5064994;28;20051;-72
2022/10/14 10:14:28;;;;;;;24.25;13.90;;;13.10;99.90;;;;;;5060132;28;20386;-73
2022/10/14 10:17:06;;;;;;;26.88;14.23;;;13.10;99.90;;;;;;5045402;28;20055;-72
2022/10/14 10:19:37;;;;;;;23.80;13.80;;;13.00;99.90;;;;;;5062306;28;20052;-73
2022/10/14 10:22:32;;;;;;;26.02;14.23;;;13.00;99.90;;;;;;5063480;28;20060;-73
2022/10/14 10:25:02;;;;;;;26.00;13.73;;;13.00;99.90;;;;;;5064891;28;20110;-73
2022/10/14 10:27:35;;;;;;;27.38;14.30;;;13.10;99.90;;;;;;5060279;28;20493;-72
2022/10/14 10:30:16;;;;;;;;;;;13.00;99.90;;;;;;5062576;28;20046;-72
2022/10/14 10:33:06;;;;;;;26.85;14.27;;;13.00;99.90;;;;;;5064532;28;20019;-72
2022/10/14 10:35:32;;;;;;;29.77;15.80;;;13.20;99.90;;;;;;5062069;28;20446;-72
2022/10/14 10:38:12;;;;;;;30.52;16.42;;;13.10;99.90;;;;;;5063645;28;20154;-71
2022/10/14 10:40:59;;;;;;;30.63;16.17;;;13.00;99.90;;;;;;5063192;28;20409;-72
2022/10/14 10:43:56;;;;;;;32.35;17.73;;;13.10;99.90;;;;;;5065053;28;20052;-73
2022/10/14 10:46:46;;;;;;;48.92;30.55;;;13.20;99.90;;;;;;5064466;28;20148;-74
2022/10/14 10:49:39;;;;;;;34.85;22.20;;;13.10;99.90;;;;;;5061464;28;20107;-73
2022/10/14 10:52:36;;;;;;;34.25;18.23;;;13.10;99.90;;;;;;5064690;28;20048;-73
2022/10/14 10:55:21;;;;;;;36.80;18.52;;;13.20;99.90;;;;;;5061652;28;20083;-73
2022/10/14 10:58:06;;;;;;;48.70;30.83;;;13.20;99.90;;;;;;5060034;28;20051;-73
2022/10/14 11:00:46;;;;;;;54.25;28.30;;;13.20;99.90;;;;;;5060285;28;20111;-73
2022/10/14 11:03:43;;;;;;;43.60;22.33;;;13.20;99.90;;;;;;5061109;28;20040;-73
2022/10/14 11:12:25;;;;;;;45.20;20.52;;;13.10;99.90;;;;;;5063883;28;20052;-74
2022/10/14 11:15:03;;;;;;;43.05;22.35;;;13.30;99.90;;;;;;5054260;28;20107;-74
2022/10/14 11:17:45;;;;;;;38.78;20.25;;;13.40;99.90;;;;;;5060860;28;20451;-73
2022/10/14 11:20:23;;;;;;;38.78;21.70;;;13.20;99.90;;;;;;5060853;28;20060;-73
2022/10/14 11:22:57;;;;;;;59.95;29.75;;;13.40;99.90;;;;;;5060383;28;20045;-74
2022/10/14 11:25:58;;;;;;;47.97;21.13;;;13.20;99.90;;;;;;5062091;28;20048;-77
2022/10/14 11:28:35;;;;;;;47.35;21.38;;;13.20;99.90;;;;;;5063816;28;20044;-75
2022/10/14 11:31:27;;;;;;;51.67;23.63;;;13.10;99.90;;;;;;5063199;28;20037;-74
2022/10/14 11:34:27;;;;;;;50.57;26.57;;;13.00;99.90;;;;;;5060949;28;20556;-74
2022/10/14 11:37:31;;;;;;;77.57;39.30;;;13.10;99.90;;;;;;5060881;28;20344;-74
2022/10/14 11:40:05;;;;;;;62.22;30.92;;;13.10;99.90;;;;;;5045839;28;20078;-75
2022/10/14 11:43:08;;;;;;;57.78;27.17;;;13.10;99.90;;;;;;5061418;28;20120;-75
2022/10/14 11:45:37;;;;;;;59.65;24.40;;;13.10;99.90;;;;;;5055976;28;20047;-74
2022/10/14 11:48:23;;;;;;;54.20;23.10;;;13.10;99.90;;;;;;5060348;28;20045;-75
2022/10/14 11:50:55;;;;;;;48.90;21.80;;;13.10;99.90;;;;;;5059689;28;20128;-75
2022/10/14 11:53:35;;;;;;;65.57;24.65;;;13.00;99.90;;;;;;5060726;28;20044;-75
2022/10/14 11:56:30;;;;;;;45.88;22.00;;;13.10;99.90;;;;;;5053023;28;20049;-76
2022/10/14 11:59:05;;;;;;;49.05;23.05;;;13.00;99.90;;;;;;5052026;28;20524;-75
2022/10/14 12:01:32;;;;;;;44.40;21.80;;;13.10;99.90;;;;;;5052980;28;20049;-77
2022/10/14 12:04:11;;;;;;;53.70;23.98;;;13.10;99.90;;;;;;5035417;28;20045;-76
2022/10/14 12:06:41;;;;;;;55.35;23.48;;;13.30;99.90;;;;;;5052450;28;20128;-75
2022/10/14 12:09:25;;;;;;;51.83;23.35;;;13.10;99.90;;;;;;5053109;28;20053;-75
2022/10/14 12:12:01;;;;;;;54.97;23.55;;;13.20;99.90;;;;;;5034866;28;20055;-76
2022/10/14 12:14:54;;;;;;;53.72;23.85;;;13.20;99.90;;;;;;5051511;28;20043;-75
2022/10/14 12:17:43;;;;;;;56.00;23.80;;;13.10;99.90;;;;;;5053093;28;20051;-76
2022/10/14 12:20:30;;;;;;;46.45;21.65;;;13.20;99.90;;;;;;5052620;28;20053;-75
2022/10/14 12:22:58;;;;;;;47.38;23.27;;;13.20;99.90;;;;;;5052254;28;20057;-74
2022/10/14 12:25:29;;;;;;;58.88;22.25;;;13.20;99.90;;;;;;5051777;28;20056;-75
2022/10/14 12:27:55;;;;;;;52.13;22.65;;;13.20;99.90;;;;;;5053019;28;20052;-75
2022/10/14 12:30:31;;;;;;;53.58;22.58;;;13.30;99.90;;;;;;5052759;28;20083;-74
2022/10/14 12:33:07;;;;;;;53.67;23.05;;;13.20;99.90;;;;;;5052432;28;20107;-74
2022/10/14 12:35:53;;;;;;;51.40;22.58;;;13.10;99.90;;;;;;5051670;28;20397;-74
2022/10/14 12:38:20;;;;;;;59.75;24.60;;;13.00;99.90;;;;;;5052661;28;20401;-74
2022/10/14 12:40:48;;;;;;;53.33;24.83;;;13.20;99.90;;;;;;5051166;28;20500;-74
2022/10/14 12:43:28;;;;;;;54.30;25.50;;;13.20;99.90;;;;;;5052530;28;20516;-74
2022/10/14 12:45:59;;;;;;;56.65;23.42;;;13.20;99.90;;;;;;5050371;28;20049;-74
2022/10/14 12:48:29;;;;;;;52.10;23.25;;;13.20;99.90;;;;;;5034863;28;20064;-74
2022/10/14 12:51:09;;;;;;;54.75;23.02;;;13.30;99.90;;;;;;5052506;28;20146;-73
2022/10/14 12:53:36;;;;;;;54.08;23.73;;;13.30;99.90;;;;;;5052318;28;20052;-75
2022/10/14 12:56:04;;;;;;;54.50;23.80;;;13.30;99.90;;;;;;5051310;28;20048;-75